sensor_id;sensor_type;location;lat;lon;timestamp;P1;durP1;ratioP1;P2;durP2;ratioP2
79785;SDS011;69265;43.614;13.518;2023-06-05T16:30:16;15.45;;;6.25;;
79785;SDS011;69265;43.614;13.518;2023-06-05T16:32:42;25.38;;;7.13;;
79785;SDS011;69265;43.614;13.518;2023-06-05T16:35:08;16.90;;;6.07;;
79785;SDS011;69265;43.614;13.518;2023-06-05T16:37:34;10.95;;;3.60;;
79785;SDS011;69265;43.614;13.518;2023-06-05T16:40:00;8.95;;;2.97;;
79785;SDS011;69265;43.614;13.518;2023-06-05T16:42:25;12.13;;;4.00;;
79785;SDS011;69265;43.614;13.518;2023-06-05T16:44:52;11.95;;;3.78;;
79785;SDS011;69265;43.614;13.518;2023-06-05T16:47:24;13.63;;;3.55;;
79785;SDS011;69265;43.614;13.518;2023-06-05T16:49:49;15.23;;;4.55;;
79785;SDS011;69265;43.614;13.518;2023-06-05T16:52:15;14.30;;;4.00;;
79785;SDS011;69265;43.614;13.518;2023-06-05T16:54:44;14.38;;;4.45;;
79785;SDS011;69265;43.614;13.518;2023-06-05T16:57:11;12.07;;;3.55;;
79785;SDS011;69265;43.614;13.518;2023-06-05T16:59:37;14.32;;;3.67;;
79785;SDS011;69265;43.614;13.518;2023-06-05T17:02:04;9.23;;;3.10;;
79785;SDS011;69265;43.614;13.518;2023-06-05T17:05:04;16.70;;;4.22;;
79785;SDS011;69265;43.614;13.518;2023-06-05T17:07:34;7.60;;;3.53;;
79785;SDS011;69265;43.614;13.518;2023-06-05T17:10:00;9.45;;;3.47;;
79785;SDS011;69265;43.614;13.518;2023-06-05T17:12:29;14.80;;;4.35;;
79785;SDS011;69265;43.614;13.518;2023-06-05T17:15:26;8.52;;;3.65;;
79785;SDS011;69265;43.614;13.518;2023-06-05T17:18:46;4.95;;;2.80;;
79785;SDS011;69265;43.614;13.518;2023-06-05T17:21:16;7.75;;;3.10;;
79785;SDS011;69265;43.614;13.518;2023-06-05T17:23:42;6.72;;;2.92;;
79785;SDS011;69265;43.614;13.518;2023-06-05T17:26:08;5.93;;;2.80;;
79785;SDS011;69265;43.614;13.518;2023-06-05T17:28:54;7.38;;;2.92;;
79785;SDS011;69265;43.614;13.518;2023-06-05T17:31:24;8.23;;;2.83;;
79785;SDS011;69265;43.614;13.518;2023-06-05T17:33:50;4.97;;;2.55;;
79785;SDS011;69265;43.614;13.518;2023-06-05T17:36:16;6.88;;;2.55;;
79785;SDS011;69265;43.614;13.518;2023-06-05T17:38:42;5.70;;;2.95;;
79785;SDS011;69265;43.614;13.518;2023-06-05T17:41:08;5.50;;;2.42;;
79785;SDS011;69265;43.614;13.518;2023-06-05T17:43:33;5.38;;;2.70;;
79785;SDS011;69265;43.614;13.518;2023-06-05T17:45:59;6.50;;;2.83;;
79785;SDS011;69265;43.614;13.518;2023-06-05T17:48:25;4.85;;;2.90;;
79785;SDS011;69265;43.614;13.518;2023-06-05T17:50:50;7.72;;;2.92;;
79785;SDS011;69265;43.614;13.518;2023-06-05T17:53:16;5.57;;;2.60;;
79785;SDS011;69265;43.614;13.518;2023-06-05T17:55:46;8.05;;;3.00;;
79785;SDS011;69265;43.614;13.518;2023-06-05T17:58:12;5.97;;;2.70;;
79785;SDS011;69265;43.614;13.518;2023-06-05T18:00:37;5.80;;;2.45;;
79785;SDS011;69265;43.614;13.518;2023-06-05T18:03:03;6.07;;;2.97;;
79785;SDS011;69265;43.614;13.518;2023-06-05T18:05:29;5.00;;;2.55;;
79785;SDS011;69265;43.614;13.518;2023-06-05T18:07:55;4.18;;;2.50;;
79785;SDS011;69265;43.614;13.518;2023-06-05T18:10:20;6.20;;;2.83;;
79785;SDS011;69265;43.614;13.518;2023-06-05T18:12:46;4.43;;;2.42;;
79785;SDS011;69265;43.614;13.518;2023-06-05T18:15:12;5.40;;;3.55;;
79785;SDS011;69265;43.614;13.518;2023-06-05T18:17:38;5.82;;;3.10;;
79785;SDS011;69265;43.614;13.518;2023-06-05T18:20:03;8.80;;;3.83;;
79785;SDS011;69265;43.614;13.518;2023-06-05T18:22:30;8.75;;;3.38;;
79785;SDS011;69265;43.614;13.518;2023-06-05T18:24:56;10.23;;;4.68;;
79785;SDS011;69265;43.614;13.518;2023-06-05T18:27:22;8.05;;;4.57;;
79785;SDS011;69265;43.614;13.518;2023-06-05T18:29:48;10.55;;;4.28;;
79785;SDS011;69265;43.614;13.518;2023-06-05T18:32:13;10.30;;;3.83;;
79785;SDS011;69265;43.614;13.518;2023-06-05T18:34:40;6.35;;;4.35;;
79785;SDS011;69265;43.614;13.518;2023-06-05T18:37:05;8.68;;;4.15;;
79785;SDS011;69265;43.614;13.518;2023-06-05T18:39:32;9.93;;;3.80;;
79785;SDS011;69265;43.614;13.518;2023-06-05T18:41:58;8.48;;;4.45;;
79785;SDS011;69265;43.614;13.518;2023-06-05T18:44:24;8.32;;;4.68;;
79785;SDS011;69265;43.614;13.518;2023-06-05T18:46:50;9.63;;;4.50;;
79785;SDS011;69265;43.614;13.518;2023-06-05T18:49:17;8.55;;;4.50;;
79785;SDS011;69265;43.614;13.518;2023-06-05T18:51:43;9.07;;;5.18;;
79785;SDS011;69265;43.614;13.518;2023-06-05T18:54:09;7.63;;;4.13;;
79785;SDS011;69265;43.614;13.518;2023-06-05T18:56:35;7.38;;;4.65;;
79785;SDS011;69265;43.614;13.518;2023-06-05T18:59:00;10.65;;;4.40;;
79785;SDS011;69265;43.614;13.518;2023-06-05T19:01:26;7.15;;;4.20;;
79785;SDS011;69265;43.614;13.518;2023-06-05T19:03:52;6.78;;;4.32;;
79785;SDS011;69265;43.614;13.518;2023-06-05T19:06:18;7.07;;;3.92;;
79785;SDS011;69265;43.614;13.518;2023-06-05T19:08:44;8.63;;;4.03;;
79785;SDS011;69265;43.614;13.518;2023-06-05T19:11:12;6.13;;;3.83;;
79785;SDS011;69265;43.614;13.518;2023-06-05T19:13:39;5.80;;;3.65;;
79785;SDS011;69265;43.614;13.518;2023-06-05T19:16:05;8.10;;;4.05;;
79785;SDS011;69265;43.614;13.518;2023-06-05T19:18:31;6.47;;;3.30;;
79785;SDS011;69265;43.614;13.518;2023-06-05T19:20:57;7.10;;;3.53;;
79785;SDS011;69265;43.614;13.518;2023-06-05T19:23:24;6.15;;;3.10;;
79785;SDS011;69265;43.614;13.518;2023-06-05T19:25:49;8.18;;;3.70;;
79785;SDS011;69265;43.614;13.518;2023-06-05T19:28:15;8.00;;;4.15;;
79785;SDS011;69265;43.614;13.518;2023-06-05T19:30:41;7.65;;;4.25;;
79785;SDS011;69265;43.614;13.518;2023-06-05T19:33:07;10.60;;;4.20;;
79785;SDS011;69265;43.614;13.518;2023-06-05T19:35:32;12.63;;;4.57;;
79785;SDS011;69265;43.614;13.518;2023-06-05T19:37:58;7.55;;;3.70;;
79785;SDS011;69265;43.614;13.518;2023-06-05T19:40:24;10.35;;;4.30;;
79785;SDS011;69265;43.614;13.518;2023-06-05T19:42:50;11.38;;;4.43;;
79785;SDS011;69265;43.614;13.518;2023-06-05T19:45:15;6.53;;;3.40;;
79785;SDS011;69265;43.614;13.518;2023-06-05T19:47:42;8.13;;;4.03;;
79785;SDS011;69265;43.614;13.518;2023-06-05T19:50:08;7.47;;;3.80;;
79785;SDS011;69265;43.614;13.518;2023-06-05T19:52:34;8.02;;;4.13;;
79785;SDS011;69265;43.614;13.518;2023-06-05T19:55:00;7.38;;;4.00;;
79785;SDS011;69265;43.614;13.518;2023-06-05T19:57:26;6.85;;;3.58;;
79785;SDS011;69265;43.614;13.518;2023-06-05T19:59:52;8.43;;;4.30;;
79785;SDS011;69265;43.614;13.518;2023-06-05T20:02:17;8.18;;;4.32;;
79785;SDS011;69265;43.614;13.518;2023-06-05T20:04:43;7.72;;;3.58;;
79785;SDS011;69265;43.614;13.518;2023-06-05T20:07:10;7.05;;;3.65;;
79785;SDS011;69265;43.614;13.518;2023-06-05T20:09:36;6.53;;;3.45;;
79785;SDS011;69265;43.614;13.518;2023-06-05T20:12:02;5.80;;;3.55;;
79785;SDS011;69265;43.614;13.518;2023-06-05T20:14:30;8.95;;;4.13;;
79785;SDS011;69265;43.614;13.518;2023-06-05T20:16:56;6.30;;;3.95;;
79785;SDS011;69265;43.614;13.518;2023-06-05T20:19:22;6.95;;;3.65;;
79785;SDS011;69265;43.614;13.518;2023-06-05T20:21:47;7.05;;;3.47;;
79785;SDS011;69265;43.614;13.518;2023-06-05T20:24:14;8.77;;;3.70;;
79785;SDS011;69265;43.614;13.518;2023-06-05T20:26:39;6.72;;;3.28;;
79785;SDS011;69265;43.614;13.518;2023-06-05T20:29:06;9.20;;;3.55;;
79785;SDS011;69265;43.614;13.518;2023-06-05T20:31:39;8.30;;;4.20;;
79785;SDS011;69265;43.614;13.518;2023-06-05T20:34:04;5.68;;;3.53;;
79785;SDS011;69265;43.614;13.518;2023-06-05T20:36:30;8.32;;;4.20;;
79785;SDS011;69265;43.614;13.518;2023-06-05T20:38:59;6.60;;;3.40;;
79785;SDS011;69265;43.614;13.518;2023-06-05T20:41:25;9.82;;;4.00;;
79785;SDS011;69265;43.614;13.518;2023-06-05T20:43:52;8.10;;;4.05;;
79785;SDS011;69265;43.614;13.518;2023-06-05T20:46:18;7.20;;;3.83;;
79785;SDS011;69265;43.614;13.518;2023-06-05T20:48:54;7.25;;;4.50;;
79785;SDS011;69265;43.614;13.518;2023-06-05T20:51:26;7.15;;;3.53;;
79785;SDS011;69265;43.614;13.518;2023-06-05T20:53:53;8.35;;;3.70;;
79785;SDS011;69265;43.614;13.518;2023-06-05T20:56:23;6.95;;;3.67;;
79785;SDS011;69265;43.614;13.518;2023-06-05T20:58:52;5.45;;;3.35;;
79785;SDS011;69265;43.614;13.518;2023-06-05T21:01:18;8.65;;;3.50;;
79785;SDS011;69265;43.614;13.518;2023-06-05T21:03:45;7.25;;;3.67;;
79785;SDS011;69265;43.614;13.518;2023-06-05T21:06:11;7.03;;;3.63;;
79785;SDS011;69265;43.614;13.518;2023-06-05T21:08:37;6.05;;;3.60;;
79785;SDS011;69265;43.614;13.518;2023-06-05T21:11:03;5.70;;;3.47;;
79785;SDS011;69265;43.614;13.518;2023-06-05T21:13:29;4.72;;;3.30;;
79785;SDS011;69265;43.614;13.518;2023-06-05T21:15:54;6.38;;;3.10;;
79785;SDS011;69265;43.614;13.518;2023-06-05T21:18:20;10.13;;;3.70;;
79785;SDS011;69265;43.614;13.518;2023-06-05T21:20:46;5.20;;;3.47;;
79785;SDS011;69265;43.614;13.518;2023-06-05T21:23:12;7.32;;;4.13;;
79785;SDS011;69265;43.614;13.518;2023-06-05T21:25:38;7.15;;;3.72;;
79785;SDS011;69265;43.614;13.518;2023-06-05T21:28:04;5.93;;;3.53;;
79785;SDS011;69265;43.614;13.518;2023-06-05T21:30:30;5.60;;;3.28;;
79785;SDS011;69265;43.614;13.518;2023-06-05T21:32:56;7.22;;;4.05;;
79785;SDS011;69265;43.614;13.518;2023-06-05T21:35:22;8.80;;;3.60;;
79785;SDS011;69265;43.614;13.518;2023-06-05T21:37:48;7.07;;;4.00;;
79785;SDS011;69265;43.614;13.518;2023-06-05T21:40:15;7.50;;;3.80;;
79785;SDS011;69265;43.614;13.518;2023-06-05T21:42:41;5.82;;;3.38;;
79785;SDS011;69265;43.614;13.518;2023-06-05T21:45:08;5.63;;;3.42;;
79785;SDS011;69265;43.614;13.518;2023-06-05T21:47:34;4.55;;;2.90;;
79785;SDS011;69265;43.614;13.518;2023-06-05T21:50:00;5.13;;;2.70;;
79785;SDS011;69265;43.614;13.518;2023-06-05T21:52:25;5.55;;;3.00;;
79785;SDS011;69265;43.614;13.518;2023-06-05T21:54:51;4.78;;;2.97;;
79785;SDS011;69265;43.614;13.518;2023-06-05T21:57:17;5.53;;;2.70;;
79785;SDS011;69265;43.614;13.518;2023-06-05T21:59:43;8.23;;;2.58;;
79785;SDS011;69265;43.614;13.518;2023-06-05T22:02:08;4.55;;;3.25;;
79785;SDS011;69265;43.614;13.518;2023-06-05T22:04:34;5.53;;;3.10;;
79785;SDS011;69265;43.614;13.518;2023-06-05T22:07:00;5.60;;;2.65;;
79785;SDS011;69265;43.614;13.518;2023-06-05T22:09:26;5.93;;;3.15;;
79785;SDS011;69265;43.614;13.518;2023-06-05T22:11:52;10.98;;;3.00;;
79785;SDS011;69265;43.614;13.518;2023-06-05T22:14:19;5.45;;;3.05;;
79785;SDS011;69265;43.614;13.518;2023-06-05T22:16:46;7.05;;;3.50;;
79785;SDS011;69265;43.614;13.518;2023-06-05T22:19:12;5.13;;;2.88;;
79785;SDS011;69265;43.614;13.518;2023-06-05T22:21:38;7.20;;;3.25;;
79785;SDS011;69265;43.614;13.518;2023-06-05T22:24:05;5.45;;;3.58;;
79785;SDS011;69265;43.614;13.518;2023-06-05T22:26:32;7.53;;;3.50;;
79785;SDS011;69265;43.614;13.518;2023-06-05T22:28:59;4.82;;;3.05;;
79785;SDS011;69265;43.614;13.518;2023-06-05T22:31:25;8.13;;;3.92;;
79785;SDS011;69265;43.614;13.518;2023-06-05T22:33:51;5.85;;;3.85;;
79785;SDS011;69265;43.614;13.518;2023-06-05T22:36:17;10.73;;;4.70;;
79785;SDS011;69265;43.614;13.518;2023-06-05T22:38:44;6.32;;;3.60;;
79785;SDS011;69265;43.614;13.518;2023-06-05T22:41:12;7.15;;;4.10;;
79785;SDS011;69265;43.614;13.518;2023-06-05T22:43:38;5.72;;;3.40;;
79785;SDS011;69265;43.614;13.518;2023-06-05T22:46:04;6.57;;;3.97;;
79785;SDS011;69265;43.614;13.518;2023-06-05T22:48:30;7.30;;;3.83;;
79785;SDS011;69265;43.614;13.518;2023-06-05T22:50:57;5.20;;;3.40;;
79785;SDS011;69265;43.614;13.518;2023-06-05T22:53:24;5.72;;;3.88;;
79785;SDS011;69265;43.614;13.518;2023-06-05T22:55:51;5.85;;;3.15;;
79785;SDS011;69265;43.614;13.518;2023-06-05T22:58:17;4.80;;;3.20;;
79785;SDS011;69265;43.614;13.518;2023-06-05T23:00:43;6.25;;;3.58;;
79785;SDS011;69265;43.614;13.518;2023-06-05T23:03:09;8.55;;;4.03;;
79785;SDS011;69265;43.614;13.518;2023-06-05T23:05:36;6.03;;;3.33;;
79785;SDS011;69265;43.614;13.518;2023-06-05T23:08:02;6.63;;;3.22;;
79785;SDS011;69265;43.614;13.518;2023-06-05T23:10:28;5.40;;;3.22;;
79785;SDS011;69265;43.614;13.518;2023-06-05T23:12:54;7.50;;;3.13;;
79785;SDS011;69265;43.614;13.518;2023-06-05T23:15:20;5.05;;;2.97;;
79785;SDS011;69265;43.614;13.518;2023-06-05T23:17:47;4.70;;;3.03;;
79785;SDS011;69265;43.614;13.518;2023-06-05T23:20:13;5.28;;;3.13;;
79785;SDS011;69265;43.614;13.518;2023-06-05T23:22:41;6.45;;;3.03;;
79785;SDS011;69265;43.614;13.518;2023-06-05T23:25:07;6.15;;;3.22;;
79785;SDS011;69265;43.614;13.518;2023-06-05T23:27:34;7.30;;;3.13;;
79785;SDS011;69265;43.614;13.518;2023-06-05T23:30:00;5.35;;;3.13;;
79785;SDS011;69265;43.614;13.518;2023-06-05T23:32:30;7.82;;;3.40;;
79785;SDS011;69265;43.614;13.518;2023-06-05T23:34:56;6.85;;;2.78;;
79785;SDS011;69265;43.614;13.518;2023-06-05T23:37:21;6.18;;;3.22;;
79785;SDS011;69265;43.614;13.518;2023-06-05T23:39:48;6.80;;;3.70;;
79785;SDS011;69265;43.614;13.518;2023-06-05T23:42:15;7.80;;;3.72;;
79785;SDS011;69265;43.614;13.518;2023-06-05T23:44:47;6.10;;;3.80;;
79785;SDS011;69265;43.614;13.518;2023-06-05T23:47:13;6.43;;;3.33;;
79785;SDS011;69265;43.614;13.518;2023-06-05T23:49:39;7.43;;;3.40;;
79785;SDS011;69265;43.614;13.518;2023-06-05T23:52:06;8.38;;;3.53;;
79785;SDS011;69265;43.614;13.518;2023-06-05T23:54:33;13.05;;;4.20;;
79785;SDS011;69265;43.614;13.518;2023-06-05T23:56:58;6.63;;;3.83;;
79785;SDS011;69265;43.614;13.518;2023-06-05T23:59:24;7.75;;;3.50;;
